sensor_id;sensor_type;location;lat;lon;timestamp;pressure;altitude;pressure_sealevel;temperature;humidity
20612;BME280;10465;42.686;23.364;2023-07-20T00:00:44;94698.31;;;27.14;49.49
20612;BME280;10465;42.686;23.364;2023-07-20T00:03:12;94697.91;;;27.15;49.64
20612;BME280;10465;42.686;23.364;2023-07-20T00:05:42;94668.94;;;27.05;50.38
20612;BME280;10465;42.686;23.364;2023-07-20T00:08:08;94686.97;;;27.19;50.72
20612;BME280;10465;42.686;23.364;2023-07-20T00:10:33;94679.22;;;27.17;50.76
20612;BME280;10465;42.686;23.364;2023-07-20T00:12:59;94654.38;;;26.95;50.45
20612;BME280;10465;42.686;23.364;2023-07-20T00:15:24;94651.78;;;26.88;49.57
20612;BME280;10465;42.686;23.364;2023-07-20T00:17:49;94686.66;;;27.13;49.53
20612;BME280;10465;42.686;23.364;2023-07-20T00:20:15;94680.84;;;27.15;49.52
20612;BME280;10465;42.686;23.364;2023-07-20T00:22:40;94700.97;;;27.17;49.49
20612;BME280;10465;42.686;23.364;2023-07-20T00:25:06;94709.47;;;27.19;49.50
20612;BME280;10465;42.686;23.364;2023-07-20T00:27:33;94698.94;;;27.21;51.17
20612;BME280;10465;42.686;23.364;2023-07-20T00:29:58;94699.72;;;27.22;51.79
20612;BME280;10465;42.686;23.364;2023-07-20T00:32:24;94687.38;;;27.17;52.05
20612;BME280;10465;42.686;23.364;2023-07-20T00:34:49;94692.94;;;27.10;52.65
20612;BME280;10465;42.686;23.364;2023-07-20T00:37:14;94691.03;;;27.07;53.57
20612;BME280;10465;42.686;23.364;2023-07-20T00:39:40;94677.75;;;26.89;54.38
20612;BME280;10465;42.686;23.364;2023-07-20T00:42:05;94701.25;;;26.99;55.53
20612;BME280;10465;42.686;23.364;2023-07-20T00:44:31;94684.66;;;26.94;55.99
20612;BME280;10465;42.686;23.364;2023-07-20T00:46:56;94678.59;;;26.86;56.61
20612;BME280;10465;42.686;23.364;2023-07-20T00:49:22;94638.84;;;26.49;57.11
20612;BME280;10465;42.686;23.364;2023-07-20T00:51:49;94671.97;;;26.63;57.59
20612;BME280;10465;42.686;23.364;2023-07-20T00:54:15;94672.44;;;26.58;58.26
20612;BME280;10465;42.686;23.364;2023-07-20T00:56:41;94673.03;;;26.46;58.71
20612;BME280;10465;42.686;23.364;2023-07-20T00:59:07;94650.41;;;26.29;59.47
20612;BME280;10465;42.686;23.364;2023-07-20T01:01:33;94662.47;;;26.25;59.84
20612;BME280;10465;42.686;23.364;2023-07-20T01:03:58;94646.09;;;26.05;60.20
20612;BME280;10465;42.686;23.364;2023-07-20T01:06:35;94665.34;;;26.14;60.20
20612;BME280;10465;42.686;23.364;2023-07-20T01:11:37;94672.00;;;26.09;60.87
20612;BME280;10465;42.686;23.364;2023-07-20T01:14:04;94665.56;;;25.96;60.75
20612;BME280;10465;42.686;23.364;2023-07-20T01:16:30;94688.75;;;26.01;61.37
20612;BME280;10465;42.686;23.364;2023-07-20T01:18:55;94681.91;;;25.93;61.94
20612;BME280;10465;42.686;23.364;2023-07-20T01:21:26;94679.66;;;25.87;62.15
20612;BME280;10465;42.686;23.364;2023-07-20T01:32:59;94685.78;;;25.92;62.10
20612;BME280;10465;42.686;23.364;2023-07-20T01:35:28;94657.78;;;25.68;62.48
20612;BME280;10465;42.686;23.364;2023-07-20T01:37:54;94679.44;;;25.71;62.68
20612;BME280;10465;42.686;23.364;2023-07-20T01:40:22;94685.53;;;25.82;62.14
20612;BME280;10465;42.686;23.364;2023-07-20T01:42:48;94667.03;;;25.74;61.96
20612;BME280;10465;42.686;23.364;2023-07-20T01:45:14;94661.28;;;25.68;62.52
20612;BME280;10465;42.686;23.364;2023-07-20T01:47:40;94655.13;;;25.64;62.40
20612;BME280;10465;42.686;23.364;2023-07-20T01:50:06;94676.63;;;25.82;62.26
20612;BME280;10465;42.686;23.364;2023-07-20T01:52:31;94663.06;;;25.82;62.15
20612;BME280;10465;42.686;23.364;2023-07-20T01:54:57;94680.88;;;25.83;61.92
20612;BME280;10465;42.686;23.364;2023-07-20T01:57:23;94669.69;;;25.81;61.90
20612;BME280;10465;42.686;23.364;2023-07-20T01:59:48;94674.69;;;25.82;62.02
20612;BME280;10465;42.686;23.364;2023-07-20T02:02:14;94673.16;;;25.81;62.18
20612;BME280;10465;42.686;23.364;2023-07-20T02:04:39;94664.59;;;25.83;62.23
20612;BME280;10465;42.686;23.364;2023-07-20T02:07:05;94664.25;;;25.81;62.29
20612;BME280;10465;42.686;23.364;2023-07-20T02:09:30;94655.00;;;25.75;62.07
20612;BME280;10465;42.686;23.364;2023-07-20T02:11:56;94662.34;;;25.78;62.07
20612;BME280;10465;42.686;23.364;2023-07-20T02:14:21;94648.59;;;25.61;62.33
20612;BME280;10465;42.686;23.364;2023-07-20T02:16:48;94662.81;;;25.69;62.84
20612;BME280;10465;42.686;23.364;2023-07-20T02:19:17;94654.00;;;25.61;62.97
20612;BME280;10465;42.686;23.364;2023-07-20T02:21:42;94667.06;;;25.70;62.87
20612;BME280;10465;42.686;23.364;2023-07-20T02:24:08;94653.97;;;25.65;62.76
20612;BME280;10465;42.686;23.364;2023-07-20T02:26:33;94659.66;;;25.78;63.01
20612;BME280;10465;42.686;23.364;2023-07-20T02:28:59;94660.06;;;25.73;63.16
20612;BME280;10465;42.686;23.364;2023-07-20T02:31:24;94671.25;;;25.78;62.56
20612;BME280;10465;42.686;23.364;2023-07-20T02:33:50;94661.59;;;25.77;62.96
20612;BME280;10465;42.686;23.364;2023-07-20T02:36:15;94662.38;;;25.74;62.93
20612;BME280;10465;42.686;23.364;2023-07-20T02:38:42;94658.88;;;25.74;62.95
20612;BME280;10465;42.686;23.364;2023-07-20T02:41:08;94646.22;;;25.63;62.43
20612;BME280;10465;42.686;23.364;2023-07-20T02:43:33;94645.84;;;25.65;61.81
20612;BME280;10465;42.686;23.364;2023-07-20T02:45:59;94592.22;;;25.19;61.90
20612;BME280;10465;42.686;23.364;2023-07-20T02:48:24;94637.75;;;25.27;63.06
20612;BME280;10465;42.686;23.364;2023-07-20T02:50:50;94622.91;;;25.05;63.54
20612;BME280;10465;42.686;23.364;2023-07-20T02:53:15;94627.41;;;25.19;64.09
20612;BME280;10465;42.686;23.364;2023-07-20T02:55:40;94626.13;;;25.30;63.69
20612;BME280;10465;42.686;23.364;2023-07-20T02:58:06;94638.06;;;25.36;63.55
20612;BME280;10465;42.686;23.364;2023-07-20T03:00:32;94630.75;;;25.33;62.32
20612;BME280;10465;42.686;23.364;2023-07-20T03:02:58;94632.19;;;25.42;62.18
20612;BME280;10465;42.686;23.364;2023-07-20T03:05:23;94628.28;;;25.43;62.55
20612;BME280;10465;42.686;23.364;2023-07-20T03:07:53;94604.03;;;25.32;63.26
20612;BME280;10465;42.686;23.364;2023-07-20T03:10:19;94524.63;;;24.74;63.33
20612;BME280;10465;42.686;23.364;2023-07-20T03:12:44;94612.53;;;25.34;63.09
20612;BME280;10465;42.686;23.364;2023-07-20T03:15:10;94648.41;;;25.45;63.54
20612;BME280;10465;42.686;23.364;2023-07-20T03:17:35;94641.75;;;25.50;63.41
20612;BME280;10465;42.686;23.364;2023-07-20T03:20:00;94642.56;;;25.47;63.56
20612;BME280;10465;42.686;23.364;2023-07-20T03:22:26;94648.41;;;25.45;63.31
20612;BME280;10465;42.686;23.364;2023-07-20T03:24:52;94657.59;;;25.51;63.29
20612;BME280;10465;42.686;23.364;2023-07-20T03:27:18;94659.59;;;25.47;63.55
20612;BME280;10465;42.686;23.364;2023-07-20T03:29:43;94633.22;;;25.21;63.85
20612;BME280;10465;42.686;23.364;2023-07-20T03:32:09;94664.38;;;25.36;64.30
20612;BME280;10465;42.686;23.364;2023-07-20T03:34:35;94657.19;;;25.22;64.28
20612;BME280;10465;42.686;23.364;2023-07-20T03:37:00;94653.66;;;25.25;64.00
20612;BME280;10465;42.686;23.364;2023-07-20T03:39:26;94655.66;;;25.21;63.68
20612;BME280;10465;42.686;23.364;2023-07-20T03:41:52;94649.94;;;25.12;63.43
20612;BME280;10465;42.686;23.364;2023-07-20T03:44:17;94608.84;;;24.79;63.36
20612;BME280;10465;42.686;23.364;2023-07-20T03:46:43;94668.47;;;25.17;63.30
20612;BME280;10465;42.686;23.364;2023-07-20T03:49:09;94658.06;;;25.12;63.48
20612;BME280;10465;42.686;23.364;2023-07-20T03:51:35;94639.59;;;25.00;63.67
20612;BME280;10465;42.686;23.364;2023-07-20T03:54:01;94640.69;;;25.06;63.42
20612;BME280;10465;42.686;23.364;2023-07-20T03:56:27;94650.22;;;25.21;63.47
20612;BME280;10465;42.686;23.364;2023-07-20T03:58:52;94648.94;;;25.33;62.76
20612;BME280;10465;42.686;23.364;2023-07-20T04:01:18;94666.16;;;25.50;62.38
20612;BME280;10465;42.686;23.364;2023-07-20T04:03:43;94658.88;;;25.43;62.30
20612;BME280;10465;42.686;23.364;2023-07-20T04:06:09;94628.53;;;25.25;62.26
20612;BME280;10465;42.686;23.364;2023-07-20T04:08:38;94664.91;;;25.58;61.73
20612;BME280;10465;42.686;23.364;2023-07-20T04:11:03;94666.13;;;25.53;62.05
20612;BME280;10465;42.686;23.364;2023-07-20T04:13:29;94662.66;;;25.53;62.10
20612;BME280;10465;42.686;23.364;2023-07-20T04:15:58;94631.53;;;25.30;62.09
20612;BME280;10465;42.686;23.364;2023-07-20T04:18:24;94661.72;;;25.63;62.33
20612;BME280;10465;42.686;23.364;2023-07-20T04:20:49;94630.16;;;25.49;62.11
20612;BME280;10465;42.686;23.364;2023-07-20T04:23:15;94640.72;;;25.71;62.13
20612;BME280;10465;42.686;23.364;2023-07-20T04:25:40;94651.16;;;25.72;62.65
20612;BME280;10465;42.686;23.364;2023-07-20T04:28:06;94615.00;;;25.52;62.86
20612;BME280;10465;42.686;23.364;2023-07-20T04:30:36;94626.16;;;25.61;62.09
20612;BME280;10465;42.686;23.364;2023-07-20T04:33:03;94617.69;;;25.55;62.02
20612;BME280;10465;42.686;23.364;2023-07-20T04:38:13;94603.41;;;25.51;62.42
20612;BME280;10465;42.686;23.364;2023-07-20T04:40:38;94650.28;;;25.82;62.62
20612;BME280;10465;42.686;23.364;2023-07-20T04:43:04;94616.75;;;25.69;62.52
20612;BME280;10465;42.686;23.364;2023-07-20T04:45:29;94640.63;;;25.81;61.86
20612;BME280;10465;42.686;23.364;2023-07-20T04:47:55;94642.56;;;25.81;61.81
20612;BME280;10465;42.686;23.364;2023-07-20T04:50:20;94649.88;;;25.84;61.85
20612;BME280;10465;42.686;23.364;2023-07-20T04:52:46;94635.91;;;25.85;61.26
20612;BME280;10465;42.686;23.364;2023-07-20T04:55:11;94643.84;;;25.69;61.34
20612;BME280;10465;42.686;23.364;2023-07-20T04:57:37;94642.22;;;25.75;61.82
20612;BME280;10465;42.686;23.364;2023-07-20T05:00:02;94636.78;;;25.75;62.00
20612;BME280;10465;42.686;23.364;2023-07-20T05:02:28;94637.59;;;25.72;62.41
20612;BME280;10465;42.686;23.364;2023-07-20T05:04:54;94636.78;;;25.75;62.25
20612;BME280;10465;42.686;23.364;2023-07-20T05:07:20;94639.91;;;25.77;62.09
20612;BME280;10465;42.686;23.364;2023-07-20T05:09:45;94618.63;;;25.72;61.41
20612;BME280;10465;42.686;23.364;2023-07-20T05:12:11;94642.72;;;25.97;61.63
20612;BME280;10465;42.686;23.364;2023-07-20T05:14:38;94623.75;;;25.97;62.14
20612;BME280;10465;42.686;23.364;2023-07-20T05:17:03;94655.31;;;26.11;60.34
20612;BME280;10465;42.686;23.364;2023-07-20T05:19:29;94636.50;;;25.97;59.47
20612;BME280;10465;42.686;23.364;2023-07-20T05:21:54;94616.72;;;26.00;59.41
20612;BME280;10465;42.686;23.364;2023-07-20T05:24:20;94651.31;;;26.19;60.08
20612;BME280;10465;42.686;23.364;2023-07-20T05:26:45;94620.19;;;26.00;59.49
20612;BME280;10465;42.686;23.364;2023-07-20T05:29:10;94637.47;;;26.13;59.15
20612;BME280;10465;42.686;23.364;2023-07-20T05:31:36;94653.81;;;26.33;59.53
20612;BME280;10465;42.686;23.364;2023-07-20T05:34:01;94627.56;;;26.27;59.55
20612;BME280;10465;42.686;23.364;2023-07-20T05:36:27;94608.72;;;26.16;58.40
20612;BME280;10465;42.686;23.364;2023-07-20T05:38:52;94629.19;;;26.48;58.88
20612;BME280;10465;42.686;23.364;2023-07-20T05:41:18;94651.38;;;26.66;59.02
20612;BME280;10465;42.686;23.364;2023-07-20T05:43:43;94658.47;;;26.60;59.39
20612;BME280;10465;42.686;23.364;2023-07-20T05:46:09;94661.94;;;26.60;59.14
20612;BME280;10465;42.686;23.364;2023-07-20T05:48:35;94655.03;;;26.56;58.30
20612;BME280;10465;42.686;23.364;2023-07-20T05:51:01;94663.78;;;26.67;57.82
20612;BME280;10465;42.686;23.364;2023-07-20T05:53:26;94672.22;;;26.73;57.36
20612;BME280;10465;42.686;23.364;2023-07-20T05:55:53;94667.03;;;26.82;57.33
20612;BME280;10465;42.686;23.364;2023-07-20T05:58:19;94671.66;;;26.81;57.16
20612;BME280;10465;42.686;23.364;2023-07-20T06:00:47;94668.50;;;26.86;56.85
20612;BME280;10465;42.686;23.364;2023-07-20T06:03:13;94650.38;;;26.80;56.36
20612;BME280;10465;42.686;23.364;2023-07-20T06:05:38;94659.22;;;26.84;55.85
20612;BME280;10465;42.686;23.364;2023-07-20T06:08:04;94643.09;;;26.73;55.86
20612;BME280;10465;42.686;23.364;2023-07-20T06:10:29;94645.81;;;26.73;55.99
20612;BME280;10465;42.686;23.364;2023-07-20T06:12:55;94657.03;;;26.75;56.49
20612;BME280;10465;42.686;23.364;2023-07-20T06:15:31;94633.53;;;26.65;56.90
20612;BME280;10465;42.686;23.364;2023-07-20T06:17:57;94640.81;;;26.72;57.30
20612;BME280;10465;42.686;23.364;2023-07-20T06:20:23;94634.72;;;26.64;57.88
20612;BME280;10465;42.686;23.364;2023-07-20T06:22:49;94645.75;;;26.77;58.89
20612;BME280;10465;42.686;23.364;2023-07-20T06:25:15;94646.84;;;26.83;58.72
20612;BME280;10465;42.686;23.364;2023-07-20T06:27:40;94619.50;;;26.70;57.21
20612;BME280;10465;42.686;23.364;2023-07-20T06:30:06;94636.44;;;26.78;57.23
20612;BME280;10465;42.686;23.364;2023-07-20T06:32:32;94632.19;;;26.77;58.00
20612;BME280;10465;42.686;23.364;2023-07-20T06:34:57;94637.63;;;26.77;58.21
20612;BME280;10465;42.686;23.364;2023-07-20T06:37:23;94616.44;;;26.68;58.29
20612;BME280;10465;42.686;23.364;2023-07-20T06:39:49;94608.34;;;26.65;57.61
20612;BME280;10465;42.686;23.364;2023-07-20T06:42:14;94609.00;;;26.72;57.48
20612;BME280;10465;42.686;23.364;2023-07-20T06:44:39;94622.38;;;26.83;57.50
20612;BME280;10465;42.686;23.364;2023-07-20T06:47:05;94621.84;;;26.92;57.83
20612;BME280;10465;42.686;23.364;2023-07-20T06:49:30;94640.19;;;27.07;57.51
20612;BME280;10465;42.686;23.364;2023-07-20T06:51:56;94638.22;;;27.08;56.69
20612;BME280;10465;42.686;23.364;2023-07-20T06:54:22;94647.81;;;27.16;56.96
20612;BME280;10465;42.686;23.364;2023-07-20T06:56:48;94642.31;;;27.20;56.62
20612;BME280;10465;42.686;23.364;2023-07-20T06:59:13;94644.09;;;27.26;56.83
20612;BME280;10465;42.686;23.364;2023-07-20T07:01:39;94659.03;;;27.38;56.67
20612;BME280;10465;42.686;23.364;2023-07-20T07:04:04;94665.53;;;27.44;56.75
20612;BME280;10465;42.686;23.364;2023-07-20T07:06:30;94662.88;;;27.41;56.12
20612;BME280;10465;42.686;23.364;2023-07-20T07:08:56;94660.47;;;27.43;55.71
20612;BME280;10465;42.686;23.364;2023-07-20T07:11:22;94639.94;;;27.22;55.73
20612;BME280;10465;42.686;23.364;2023-07-20T07:13:48;94623.94;;;27.04;54.95
20612;BME280;10465;42.686;23.364;2023-07-20T07:16:16;94676.09;;;27.39;55.16
20612;BME280;10465;42.686;23.364;2023-07-20T07:18:46;94695.63;;;27.33;55.13
20612;BME280;10465;42.686;23.364;2023-07-20T07:21:12;94670.38;;;27.13;55.04
20612;BME280;10465;42.686;23.364;2023-07-20T07:23:38;94652.06;;;26.94;54.56
20612;BME280;10465;42.686;23.364;2023-07-20T07:26:04;94710.81;;;27.31;55.27
20612;BME280;10465;42.686;23.364;2023-07-20T07:28:29;94712.41;;;27.28;54.68
20612;BME280;10465;42.686;23.364;2023-07-20T07:30:55;94709.25;;;27.30;54.81
20612;BME280;10465;42.686;23.364;2023-07-20T07:33:22;94712.28;;;27.35;54.97
20612;BME280;10465;42.686;23.364;2023-07-20T07:35:48;94649.97;;;27.01;54.60
20612;BME280;10465;42.686;23.364;2023-07-20T07:38:14;94660.19;;;27.17;54.12
20612;BME280;10465;42.686;23.364;2023-07-20T07:40:39;94579.50;;;26.74;54.24
20612;BME280;10465;42.686;23.364;2023-07-20T07:43:05;94604.22;;;27.00;53.46
20612;BME280;10465;42.686;23.364;2023-07-20T07:45:34;94606.53;;;27.01;53.55
20612;BME280;10465;42.686;23.364;2023-07-20T07:48:00;94627.97;;;27.19;53.64
20612;BME280;10465;42.686;23.364;2023-07-20T07:50:27;94667.69;;;27.53;53.36
20612;BME280;10465;42.686;23.364;2023-07-20T07:52:53;94655.66;;;27.70;53.23
20612;BME280;10465;42.686;23.364;2023-07-20T07:55:19;94643.00;;;27.83;53.09
20612;BME280;10465;42.686;23.364;2023-07-20T07:57:44;94545.25;;;27.20;54.04
20612;BME280;10465;42.686;23.364;2023-07-20T08:00:13;94670.50;;;28.05;53.53
20612;BME280;10465;42.686;23.364;2023-07-20T08:02:41;94670.28;;;28.16;52.23
20612;BME280;10465;42.686;23.364;2023-07-20T08:05:07;94648.16;;;28.14;51.48
20612;BME280;10465;42.686;23.364;2023-07-20T08:07:33;94665.50;;;28.20;52.04
20612;BME280;10465;42.686;23.364;2023-07-20T08:09:58;94683.53;;;28.30;51.65
20612;BME280;10465;42.686;23.364;2023-07-20T08:12:26;94698.78;;;28.28;51.95
20612;BME280;10465;42.686;23.364;2023-07-20T08:14:51;94709.56;;;28.31;51.67
20612;BME280;10465;42.686;23.364;2023-07-20T08:17:17;94631.94;;;27.91;51.64
20612;BME280;10465;42.686;23.364;2023-07-20T08:19:43;94706.31;;;28.40;52.50
20612;BME280;10465;42.686;23.364;2023-07-20T08:22:09;94694.84;;;28.49;52.71
20612;BME280;10465;42.686;23.364;2023-07-20T08:24:39;94660.31;;;28.26;52.75
20612;BME280;10465;42.686;23.364;2023-07-20T08:27:05;94717.22;;;28.56;54.10
20612;BME280;10465;42.686;23.364;2023-07-20T08:29:30;94696.59;;;28.39;54.53
20612;BME280;10465;42.686;23.364;2023-07-20T08:31:56;94610.00;;;27.81;53.16
20612;BME280;10465;42.686;23.364;2023-07-20T08:34:21;94679.03;;;28.24;51.77
20612;BME280;10465;42.686;23.364;2023-07-20T08:36:47;94720.25;;;28.42;50.87
20612;BME280;10465;42.686;23.364;2023-07-20T08:39:12;94718.84;;;28.34;50.39
20612;BME280;10465;42.686;23.364;2023-07-20T08:41:38;94713.78;;;28.36;48.84
20612;BME280;10465;42.686;23.364;2023-07-20T08:44:05;94694.78;;;28.32;48.46
20612;BME280;10465;42.686;23.364;2023-07-20T08:46:31;94698.34;;;28.29;46.60
20612;BME280;10465;42.686;23.364;2023-07-20T08:48:57;94690.69;;;28.24;46.77
20612;BME280;10465;42.686;23.364;2023-07-20T08:51:23;94695.88;;;28.35;45.50
20612;BME280;10465;42.686;23.364;2023-07-20T08:53:50;94681.59;;;28.31;45.50
20612;BME280;10465;42.686;23.364;2023-07-20T08:56:18;94699.22;;;28.43;45.40
20612;BME280;10465;42.686;23.364;2023-07-20T08:58:45;94666.66;;;28.39;44.85
20612;BME280;10465;42.686;23.364;2023-07-20T09:01:11;94686.66;;;28.49;44.49
20612;BME280;10465;42.686;23.364;2023-07-20T09:03:38;94693.38;;;28.44;44.75
20612;BME280;10465;42.686;23.364;2023-07-20T09:06:05;94683.75;;;28.40;44.46
20612;BME280;10465;42.686;23.364;2023-07-20T09:08:31;94660.13;;;28.37;44.59
20612;BME280;10465;42.686;23.364;2023-07-20T09:10:56;94675.50;;;28.59;43.88
20612;BME280;10465;42.686;23.364;2023-07-20T09:13:22;94666.41;;;28.66;43.96
20612;BME280;10465;42.686;23.364;2023-07-20T09:15:53;94670.41;;;28.78;44.09
20612;BME280;10465;42.686;23.364;2023-07-20T09:18:29;94683.25;;;28.94;43.39
20612;BME280;10465;42.686;23.364;2023-07-20T09:21:03;94679.06;;;29.05;43.83
20612;BME280;10465;42.686;23.364;2023-07-20T09:23:36;94670.50;;;29.20;43.65
20612;BME280;10465;42.686;23.364;2023-07-20T09:26:12;94635.38;;;29.09;43.11
20612;BME280;10465;42.686;23.364;2023-07-20T09:28:43;94660.72;;;29.51;43.05
20612;BME280;10465;42.686;23.364;2023-07-20T09:31:19;94664.03;;;29.59;42.81
20612;BME280;10465;42.686;23.364;2023-07-20T09:33:46;94654.75;;;29.56;42.92
20612;BME280;10465;42.686;23.364;2023-07-20T09:36:12;94655.09;;;29.59;42.97
20612;BME280;10465;42.686;23.364;2023-07-20T09:38:39;94659.03;;;29.70;42.79
20612;BME280;10465;42.686;23.364;2023-07-20T09:41:05;94655.31;;;29.77;43.26
20612;BME280;10465;42.686;23.364;2023-07-20T09:43:34;94647.47;;;29.66;41.57
20612;BME280;10465;42.686;23.364;2023-07-20T09:46:00;94658.97;;;29.87;42.42
20612;BME280;10465;42.686;23.364;2023-07-20T09:48:26;94651.34;;;29.94;41.21
20612;BME280;10465;42.686;23.364;2023-07-20T09:50:52;94658.97;;;29.99;40.34
20612;BME280;10465;42.686;23.364;2023-07-20T09:53:19;94623.50;;;29.87;39.05
20612;BME280;10465;42.686;23.364;2023-07-20T09:55:46;94620.75;;;29.99;39.11
20612;BME280;10465;42.686;23.364;2023-07-20T09:58:13;94627.34;;;30.27;38.10
20612;BME280;10465;42.686;23.364;2023-07-20T10:00:40;94565.41;;;30.12;38.58
20612;BME280;10465;42.686;23.364;2023-07-20T10:03:10;94559.00;;;30.18;38.32
20612;BME280;10465;42.686;23.364;2023-07-20T10:05:39;94611.91;;;30.59;36.96
20612;BME280;10465;42.686;23.364;2023-07-20T10:08:11;94606.78;;;30.48;37.14
20612;BME280;10465;42.686;23.364;2023-07-20T10:10:38;94626.19;;;30.63;37.32
20612;BME280;10465;42.686;23.364;2023-07-20T10:13:10;94602.00;;;30.40;37.01
20612;BME280;10465;42.686;23.364;2023-07-20T10:16:11;94628.06;;;30.53;37.18
20612;BME280;10465;42.686;23.364;2023-07-20T10:18:59;94634.28;;;30.54;36.62
20612;BME280;10465;42.686;23.364;2023-07-20T10:21:27;94627.00;;;30.51;35.84
20612;BME280;10465;42.686;23.364;2023-07-20T10:23:56;94625.25;;;30.44;36.62
20612;BME280;10465;42.686;23.364;2023-07-20T10:26:22;94637.25;;;30.47;37.78
20612;BME280;10465;42.686;23.364;2023-07-20T10:28:47;94643.69;;;30.53;37.91
20612;BME280;10465;42.686;23.364;2023-07-20T10:31:15;94644.03;;;30.55;38.15
20612;BME280;10465;42.686;23.364;2023-07-20T10:33:41;94615.94;;;30.42;37.84
20612;BME280;10465;42.686;23.364;2023-07-20T10:36:10;94614.09;;;30.51;38.45
20612;BME280;10465;42.686;23.364;2023-07-20T10:41:34;94629.81;;;30.60;37.45
20612;BME280;10465;42.686;23.364;2023-07-20T10:44:04;94609.63;;;30.45;37.04
20612;BME280;10465;42.686;23.364;2023-07-20T10:49:06;94594.44;;;30.44;36.83
20612;BME280;10465;42.686;23.364;2023-07-20T10:51:44;94535.69;;;30.39;36.24
20612;BME280;10465;42.686;23.364;2023-07-20T10:56:40;94591.63;;;30.35;38.47
20612;BME280;10465;42.686;23.364;2023-07-20T11:01:48;94563.34;;;30.28;37.93
20612;BME280;10465;42.686;23.364;2023-07-20T11:04:17;94576.16;;;30.53;37.54
20612;BME280;10465;42.686;23.364;2023-07-20T11:06:45;94568.38;;;30.65;36.49
20612;BME280;10465;42.686;23.364;2023-07-20T11:09:12;94504.03;;;30.29;36.69
20612;BME280;10465;42.686;23.364;2023-07-20T11:11:46;94465.00;;;30.07;36.65
20612;BME280;10465;42.686;23.364;2023-07-20T11:14:23;94537.13;;;30.66;36.27
20612;BME280;10465;42.686;23.364;2023-07-20T11:16:49;94565.16;;;30.92;36.66
20612;BME280;10465;42.686;23.364;2023-07-20T11:19:26;94554.72;;;30.99;36.95
20612;BME280;10465;42.686;23.364;2023-07-20T11:21:56;94540.09;;;30.93;36.59
20612;BME280;10465;42.686;23.364;2023-07-20T11:24:22;94568.13;;;31.07;36.74
20612;BME280;10465;42.686;23.364;2023-07-20T11:26:50;94550.72;;;31.13;36.70
20612;BME280;10465;42.686;23.364;2023-07-20T11:29:17;94555.47;;;31.22;36.40
20612;BME280;10465;42.686;23.364;2023-07-20T11:31:44;94492.44;;;30.94;36.30
20612;BME280;10465;42.686;23.364;2023-07-20T11:34:12;94548.44;;;31.34;36.52
20612;BME280;10465;42.686;23.364;2023-07-20T12:22:40;94457.88;;;32.40;34.73
20612;BME280;10465;42.686;23.364;2023-07-20T12:25:07;94483.78;;;32.66;33.83
20612;BME280;10465;42.686;23.364;2023-07-20T12:27:36;94490.63;;;32.71;34.25
20612;BME280;10465;42.686;23.364;2023-07-20T12:30:01;94464.88;;;32.59;33.88
20612;BME280;10465;42.686;23.364;2023-07-20T12:32:29;94440.69;;;32.58;34.37
20612;BME280;10465;42.686;23.364;2023-07-20T12:34:55;94418.44;;;32.65;33.66
20612;BME280;10465;42.686;23.364;2023-07-20T12:37:21;94470.94;;;33.09;32.15
20612;BME280;10465;42.686;23.364;2023-07-20T12:39:46;94450.09;;;33.03;31.55
20612;BME280;10465;42.686;23.364;2023-07-20T12:42:12;94480.19;;;33.21;31.62
20612;BME280;10465;42.686;23.364;2023-07-20T12:44:40;94468.59;;;33.26;32.54
20612;BME280;10465;42.686;23.364;2023-07-20T12:47:05;94462.94;;;33.30;32.76
20612;BME280;10465;42.686;23.364;2023-07-20T12:49:31;94462.34;;;33.35;31.84
20612;BME280;10465;42.686;23.364;2023-07-20T12:51:57;94465.69;;;33.30;31.26
20612;BME280;10465;42.686;23.364;2023-07-20T12:54:22;94468.75;;;33.32;30.43
20612;BME280;10465;42.686;23.364;2023-07-20T12:56:48;94444.81;;;33.32;30.62
20612;BME280;10465;42.686;23.364;2023-07-20T12:59:13;94463.50;;;33.52;30.07
20612;BME280;10465;42.686;23.364;2023-07-20T13:01:39;94435.94;;;33.37;30.18
20612;BME280;10465;42.686;23.364;2023-07-20T13:04:06;94455.91;;;33.38;30.16
20612;BME280;10465;42.686;23.364;2023-07-20T13:06:34;94455.63;;;33.36;30.35
20612;BME280;10465;42.686;23.364;2023-07-20T13:09:00;94429.50;;;33.07;30.26
20612;BME280;10465;42.686;23.364;2023-07-20T13:11:26;94432.25;;;33.07;30.87
20612;BME280;10465;42.686;23.364;2023-07-20T13:13:52;94411.41;;;32.91;31.16
20612;BME280;10465;42.686;23.364;2023-07-20T13:16:17;94450.94;;;33.27;30.60
20612;BME280;10465;42.686;23.364;2023-07-20T13:18:43;94451.81;;;33.33;30.44
20612;BME280;10465;42.686;23.364;2023-07-20T13:21:08;94427.63;;;33.22;30.88
20612;BME280;10465;42.686;23.364;2023-07-20T13:23:38;94425.22;;;33.15;31.14
20612;BME280;10465;42.686;23.364;2023-07-20T13:26:05;94442.38;;;33.34;31.25
20612;BME280;10465;42.686;23.364;2023-07-20T13:28:30;94453.94;;;33.38;30.86
20612;BME280;10465;42.686;23.364;2023-07-20T13:30:56;94463.84;;;33.36;30.79
20612;BME280;10465;42.686;23.364;2023-07-20T13:33:21;94437.34;;;33.33;30.63
20612;BME280;10465;42.686;23.364;2023-07-20T13:35:47;94460.25;;;33.20;31.30
20612;BME280;10465;42.686;23.364;2023-07-20T13:38:13;94420.97;;;33.14;32.04
20612;BME280;10465;42.686;23.364;2023-07-20T13:40:38;94445.28;;;33.31;32.84
20612;BME280;10465;42.686;23.364;2023-07-20T13:43:03;94436.19;;;33.15;33.19
20612;BME280;10465;42.686;23.364;2023-07-20T13:45:29;94403.50;;;32.93;33.24
20612;BME280;10465;42.686;23.364;2023-07-20T13:47:54;94437.22;;;33.18;33.15
20612;BME280;10465;42.686;23.364;2023-07-20T13:50:20;94437.09;;;33.12;33.35
20612;BME280;10465;42.686;23.364;2023-07-20T13:52:45;94435.59;;;33.11;33.83
20612;BME280;10465;42.686;23.364;2023-07-20T13:55:11;94432.53;;;33.09;33.68
20612;BME280;10465;42.686;23.364;2023-07-20T13:57:36;94430.28;;;33.08;32.98